Time;durP1;ratioP1;P1;durP2;ratioP2;P2;SDS_P1;SDS_P2;PMS_P1;PMS_P2;Temp;Humidity;BMP_temperature;BMP_pressure;BME280_temperature;BME280_humidity;BME280_pressure;Samples;Min_cycle;Max_cycle;Signal;HPM_P1;HPM_P2
2021/12/23 00:01:40;;;;;;;40.72;26.88;;;-0.30;59.50;;;-142.21;100.00;112049.66;5096122;28;20211;-77
2021/12/23 00:04:09;;;;;;;40.67;27.00;;;-0.30;59.60;;;-142.21;100.00;112049.66;5094414;28;20212;-77
2021/12/23 00:06:36;;;;;;;35.53;24.90;;;-0.20;59.60;;;-142.21;100.00;112049.66;5094578;28;20208;-77
2021/12/23 00:09:05;;;;;;;40.13;26.13;;;-0.30;59.70;;;-142.21;100.00;112049.66;5092554;28;20221;-77
2021/12/23 00:11:34;;;;;;;36.85;25.85;;;-0.30;59.40;;;-142.21;100.00;112049.66;5095424;28;20216;-77
2021/12/23 00:14:05;;;;;;;37.10;25.60;;;-0.30;59.40;;;-142.21;100.00;112049.66;5093611;28;20206;-77
2021/12/23 00:16:46;;;;;;;37.42;25.10;;;-0.20;59.50;;;-142.21;100.00;112049.66;5094307;28;20243;-78
2021/12/23 00:19:22;;;;;;;35.40;24.63;;;-0.20;59.50;;;-142.21;100.00;112049.66;5093644;28;20188;-78
2021/12/23 00:24:35;;;;;;;37.72;23.98;;;-0.30;59.60;;;-142.21;100.00;112049.66;5094650;28;20192;-78
2021/12/23 00:27:03;;;;;;;37.08;25.20;;;-0.30;59.80;;;-142.21;100.00;112049.66;5093831;28;20208;-77
2021/12/23 00:29:33;;;;;;;36.47;25.00;;;-0.30;59.60;;;-142.21;100.00;112049.66;5092634;28;20327;-77
2021/12/23 00:32:04;;;;;;;36.15;25.38;;;-0.30;59.60;;;-142.21;100.00;112049.66;5094888;28;20291;-77
2021/12/23 00:34:32;;;;;;;35.53;25.88;;;-0.40;59.70;;;-142.21;100.00;112049.66;5093849;28;20232;-79
2021/12/23 00:37:00;;;;;;;36.95;24.85;;;-0.40;59.70;;;-142.21;100.00;112049.66;5095192;28;20291;-77
2021/12/23 00:39:29;;;;;;;39.10;24.25;;;-0.50;60.20;;;-142.21;100.00;112049.66;5105884;28;20206;-76
2021/12/23 00:42:05;;;;;;;37.50;25.40;;;-0.50;59.70;;;-142.21;100.00;112049.66;5115480;28;20286;-79
2021/12/23 00:44:35;;;;;;;34.80;25.15;;;-0.50;59.70;;;-142.21;100.00;112049.66;5113642;28;20214;-77
2021/12/23 00:47:02;;;;;;;32.22;22.67;;;-0.40;60.40;;;-142.21;100.00;112049.66;5114816;28;20290;-77
2021/12/23 00:49:34;;;;;;;35.08;23.60;;;-0.50;59.60;;;-142.21;100.00;112049.66;5111228;28;20763;-78
2021/12/23 00:52:06;;;;;;;37.55;25.23;;;-0.40;59.70;;;-142.21;100.00;112049.66;5094294;28;20240;-77
2021/12/23 00:54:36;;;;;;;35.67;24.30;;;-0.50;59.70;;;-142.21;100.00;112049.66;5093422;28;20189;-76
2021/12/23 00:57:05;;;;;;;34.22;23.00;;;-0.40;59.90;;;-142.21;100.00;112049.66;5076136;28;20207;-77
2021/12/23 00:59:32;;;;;;;35.47;24.73;;;-0.40;59.90;;;-142.21;100.00;112049.66;5093438;28;20611;-77
2021/12/23 01:02:03;;;;;;;35.65;24.77;;;-0.50;60.50;;;-142.21;100.00;112049.66;5096464;28;20200;-77
2021/12/23 01:04:30;;;;;;;34.63;23.98;;;-0.50;60.10;;;-142.21;100.00;112049.66;5113342;28;20648;-78
2021/12/23 01:06:57;;;;;;;33.97;24.67;;;-0.50;60.40;;;-142.21;100.00;112049.66;5114664;28;20200;-77
2021/12/23 01:09:24;;;;;;;36.00;24.45;;;-0.40;60.40;;;-142.21;100.00;112049.66;5114596;28;20664;-77
2021/12/23 01:11:53;;;;;;;37.67;24.75;;;-0.40;60.70;;;-142.21;100.00;112049.66;5114210;28;20295;-77
2021/12/23 01:14:29;;;;;;;36.35;25.48;;;-0.40;60.50;;;-142.21;100.00;112049.66;5114483;28;20706;-76
2021/12/23 01:17:23;;;;;;;38.38;25.95;;;-0.40;60.00;;;-142.21;100.00;112049.66;5112575;28;20183;-76
2021/12/23 01:19:54;;;;;;;36.53;25.25;;;-0.30;59.90;;;-142.21;100.00;112049.66;5114076;28;20283;-77
2021/12/23 01:22:22;;;;;;;37.20;25.23;;;-0.40;59.90;;;-142.21;100.00;112049.66;5114077;28;20194;-77
2021/12/23 01:24:51;;;;;;;35.38;24.65;;;-0.30;59.90;;;-142.21;100.00;112049.66;5112788;28;20210;-78
2021/12/23 01:27:18;;;;;;;34.42;23.95;;;-0.30;60.50;;;-142.21;100.00;112049.66;5106189;28;20631;-77
2021/12/23 01:29:46;;;;;;;34.60;24.15;;;-0.30;60.10;;;-142.21;100.00;112049.66;5090938;28;20725;-76
2021/12/23 01:32:13;;;;;;;35.92;25.02;;;-0.30;60.20;;;-142.21;100.00;112049.66;5092549;28;20299;-77
2021/12/23 01:34:40;;;;;;;34.95;23.40;;;-0.30;60.10;;;-142.21;100.00;112049.66;5092654;28;20238;-77
2021/12/23 01:37:10;;;;;;;35.90;24.70;;;-0.20;60.20;;;-142.21;100.00;112049.66;5092343;28;20242;-78
2021/12/23 01:39:37;;;;;;;33.72;23.40;;;-0.20;59.90;;;-142.21;100.00;112049.66;5091729;28;20565;-77
2021/12/23 01:42:05;;;;;;;36.40;25.08;;;-0.20;60.70;;;-142.21;100.00;112049.66;5092344;28;20212;-77
2021/12/23 01:44:32;;;;;;;33.40;24.60;;;-0.10;60.20;;;-142.21;100.00;112049.66;5092780;28;20565;-78
2021/12/23 01:47:00;;;;;;;33.53;23.27;;;-0.10;60.70;;;-142.21;100.00;112049.66;5092100;28;20200;-77
2021/12/23 01:49:27;;;;;;;32.58;24.00;;;-0.10;60.60;;;-142.21;100.00;112049.66;5092669;28;20267;-77
2021/12/23 01:51:54;;;;;;;34.65;23.65;;;-0.10;59.80;;;-142.21;100.00;112049.66;5092569;28;20228;-77
2021/12/23 01:54:22;;;;;;;34.83;23.92;;;0.00;59.70;;;-142.21;100.00;112049.66;5090786;28;20239;-78
2021/12/23 01:56:51;;;;;;;33.92;23.58;;;0.00;60.20;;;-142.21;100.00;112049.66;5092507;28;20205;-78
2021/12/23 01:59:18;;;;;;;33.55;23.42;;;-0.10;60.80;;;-142.21;100.00;112049.66;5094391;28;20201;-76
2021/12/23 02:01:46;;;;;;;35.35;24.50;;;-0.10;60.30;;;-142.21;100.00;112049.66;5112477;28;20206;-77
2021/12/23 02:04:13;;;;;;;33.28;24.05;;;-0.10;60.10;;;-142.21;100.00;112049.66;5111376;28;20214;-79
2021/12/23 02:06:40;;;;;;;33.78;23.25;;;-0.10;60.20;;;-142.21;100.00;112049.66;5112661;28;20200;-77
2021/12/23 02:09:10;;;;;;;32.95;23.95;;;-0.10;60.60;;;-142.21;100.00;112049.66;5112593;28;20230;-77
2021/12/23 02:11:40;;;;;;;31.25;22.92;;;0.00;60.00;;;-142.21;100.00;112049.66;5112936;28;20260;-77
2021/12/23 02:14:07;;;;;;;36.22;24.08;;;0.00;60.00;;;-142.21;100.00;112049.66;5111548;28;20214;-77
2021/12/23 02:16:34;;;;;;;34.65;23.45;;;0.00;60.40;;;-142.21;100.00;112049.66;5111737;28;20235;-78
2021/12/23 02:19:04;;;;;;;35.70;24.45;;;0.00;61.10;;;-142.21;100.00;112049.66;5077666;28;20625;-78
2021/12/23 02:21:33;;;;;;;31.80;23.75;;;0.00;60.70;;;-142.21;100.00;112049.66;5102708;28;20306;-77
2021/12/23 02:24:00;;;;;;;36.88;24.48;;;-0.10;60.10;;;-142.21;100.00;112049.66;5091004;28;20206;-78
2021/12/23 02:26:27;;;;;;;32.40;24.58;;;0.00;60.00;;;-142.21;100.00;112049.66;5092153;28;20208;-77
2021/12/23 02:28:54;;;;;;;36.00;23.98;;;0.00;60.80;;;-142.21;100.00;112049.66;5105616;28;20220;-79
2021/12/23 02:31:21;;;;;;;37.17;24.20;;;0.00;60.20;;;-142.21;100.00;112049.66;5115271;28;20203;-77
2021/12/23 02:33:49;;;;;;;36.28;25.38;;;0.00;60.30;;;-142.21;100.00;112049.66;5116565;28;20200;-78
2021/12/23 02:36:16;;;;;;;35.35;25.10;;;0.00;60.20;;;-142.21;100.00;112049.66;5116409;28;20214;-76
2021/12/23 02:38:45;;;;;;;36.72;24.90;;;0.00;60.50;;;-142.21;100.00;112049.66;5118885;28;20267;-75
2021/12/23 02:41:12;;;;;;;37.03;26.35;;;0.00;60.10;;;-142.21;100.00;112049.66;5130287;28;20207;-74
2021/12/23 02:43:39;;;;;;;34.47;24.70;;;0.10;60.10;;;-142.21;100.00;112049.66;5122050;28;20706;-75
2021/12/23 02:46:06;;;;;;;32.70;23.70;;;0.10;60.00;;;-142.21;100.00;112049.66;5116474;28;20535;-77
2021/12/23 02:48:36;;;;;;;34.03;23.08;;;0.10;60.20;;;-142.21;100.00;112049.66;5116392;28;20204;-78
2021/12/23 02:51:09;;;;;;;35.15;24.92;;;0.00;60.10;;;-142.21;100.00;112049.66;5116013;28;20199;-77
2021/12/23 02:53:38;;;;;;;35.78;24.83;;;0.00;60.10;;;-142.21;100.00;112049.66;5116087;28;20283;-78
2021/12/23 02:56:10;;;;;;;34.28;22.98;;;0.00;60.50;;;-142.21;100.00;112049.66;5116080;28;20874;-78
2021/12/23 02:58:37;;;;;;;32.70;22.55;;;0.00;60.80;;;-142.21;100.00;112049.66;5115923;28;20194;-78
2021/12/23 03:01:08;;;;;;;31.65;23.00;;;-0.10;61.60;;;-142.21;100.00;112049.66;5115671;28;20207;-78
2021/12/23 03:03:37;;;;;;;34.28;24.88;;;-0.10;61.10;;;-142.21;100.00;112049.66;5116119;28;20195;-77
2021/12/23 03:06:05;;;;;;;34.55;23.95;;;-0.10;61.10;;;-142.21;100.00;112049.66;5115486;28;20203;-79
2021/12/23 03:08:36;;;;;;;34.38;24.05;;;0.00;60.90;;;-142.21;100.00;112049.66;5116045;27;20619;-78
2021/12/23 03:11:04;;;;;;;34.08;24.08;;;0.00;61.00;;;-142.21;100.00;112049.66;5115476;28;20190;-77
2021/12/23 03:13:33;;;;;;;34.13;24.35;;;0.00;61.40;;;-142.21;100.00;112049.66;5115620;28;20204;-77
2021/12/23 03:16:01;;;;;;;35.30;25.20;;;0.10;61.30;;;-142.21;100.00;112049.66;5115357;28;20286;-77
2021/12/23 03:18:29;;;;;;;38.63;25.60;;;0.10;61.30;;;-142.21;100.00;112049.66;5114358;28;20207;-79
2021/12/23 03:20:58;;;;;;;34.35;24.58;;;0.10;61.10;;;-142.21;100.00;112049.66;5115215;28;20224;-77
2021/12/23 03:23:26;;;;;;;35.42;25.63;;;0.10;61.00;;;-142.21;100.00;112049.66;5115355;28;20356;-77
2021/12/23 03:25:54;;;;;;;35.05;24.75;;;0.20;61.10;;;-142.21;100.00;112049.66;5115241;28;20219;-77
2021/12/23 03:28:22;;;;;;;36.70;26.08;;;0.20;61.40;;;-142.21;100.00;112049.66;5114632;28;20200;-78
2021/12/23 03:30:51;;;;;;;33.90;23.65;;;0.20;61.10;;;-142.21;100.00;112049.66;5114506;28;20223;-76
2021/12/23 03:33:19;;;;;;;32.00;22.65;;;0.20;61.10;;;-142.21;100.00;112049.66;5114272;28;20291;-78
2021/12/23 03:35:47;;;;;;;32.92;23.70;;;0.20;61.40;;;-142.21;100.00;112049.66;5114896;28;20235;-78
2021/12/23 03:38:16;;;;;;;35.13;24.55;;;0.30;61.70;;;-142.21;100.00;112049.66;5114337;28;20212;-78
2021/12/23 03:40:44;;;;;;;35.10;25.33;;;0.40;61.80;;;-142.21;100.00;112049.66;5113827;28;20214;-78
2021/12/23 03:43:12;;;;;;;35.28;25.45;;;0.40;62.20;;;-142.21;100.00;112049.66;5114775;28;20295;-78
2021/12/23 03:45:40;;;;;;;33.60;23.92;;;0.40;62.70;;;-142.21;100.00;112049.66;5112878;28;20199;-78
2021/12/23 03:48:08;;;;;;;35.63;24.75;;;0.30;62.70;;;-142.21;100.00;112049.66;5114762;28;20196;-78
2021/12/23 03:50:36;;;;;;;35.22;24.45;;;0.40;62.50;;;-142.21;100.00;112049.66;5113173;28;20220;-77
2021/12/23 03:53:03;;;;;;;33.90;23.92;;;0.50;62.40;;;-142.21;100.00;112049.66;5114784;28;20200;-77
2021/12/23 03:55:31;;;;;;;35.42;23.52;;;0.50;61.90;;;-142.21;100.00;112049.66;5114038;28;20292;-78
2021/12/23 03:57:58;;;;;;;36.72;24.35;;;0.50;62.30;;;-142.21;100.00;112049.66;5113381;28;20203;-77
2021/12/23 04:00:26;;;;;;;39.50;26.40;;;0.40;61.80;;;-142.21;100.00;112049.66;5114013;28;20203;-77
2021/12/23 04:02:54;;;;;;;41.58;25.90;;;0.40;62.40;;;-142.21;100.00;112049.66;5114560;28;20294;-77
2021/12/23 04:05:25;;;;;;;41.13;26.42;;;0.40;62.50;;;-142.21;100.00;112049.66;5114386;28;20203;-77
2021/12/23 04:07:52;;;;;;;37.28;26.08;;;0.50;62.30;;;-142.21;100.00;112049.66;5114068;28;20188;-79
2021/12/23 04:10:22;;;;;;;41.95;26.33;;;0.40;62.30;;;-142.21;100.00;112049.66;5114225;28;20223;-79
2021/12/23 04:12:53;;;;;;;41.47;25.45;;;0.40;62.60;;;-142.21;100.00;112049.66;5112074;28;20291;-77
2021/12/23 04:15:21;;;;;;;37.08;26.13;;;0.50;62.40;;;-142.21;100.00;112049.66;5114229;28;20299;-77
2021/12/23 04:17:48;;;;;;;40.63;26.23;;;0.50;62.30;;;-142.21;100.00;112049.66;5113809;27;20206;-77
2021/12/23 04:20:19;;;;;;;37.88;26.20;;;0.50;62.20;;;-142.21;100.00;112049.66;5114311;28;20244;-78
2021/12/23 04:22:50;;;;;;;40.25;25.02;;;0.60;62.20;;;-142.21;100.00;112049.66;5113675;27;20691;-78
2021/12/23 04:25:20;;;;;;;40.15;25.70;;;0.60;61.90;;;-142.21;100.00;112049.66;5113696;28;20662;-78
2021/12/23 04:27:51;;;;;;;35.85;23.95;;;0.60;61.90;;;-142.21;100.00;112049.66;5113637;28;20664;-78
2021/12/23 04:30:20;;;;;;;36.15;24.45;;;0.60;61.70;;;-142.21;100.00;112049.66;5114129;28;20628;-78
2021/12/23 04:32:47;;;;;;;32.50;23.63;;;0.70;61.70;;;-142.21;100.00;112049.66;5114131;28;20207;-79
2021/12/23 04:35:15;;;;;;;33.50;23.20;;;0.60;61.60;;;-142.21;100.00;112049.66;5113194;28;20246;-78
2021/12/23 04:37:42;;;;;;;35.72;25.67;;;0.60;61.50;;;-142.21;100.00;112049.66;5112734;28;20206;-78
2021/12/23 04:40:14;;;;;;;37.65;24.77;;;0.60;61.50;;;-142.21;100.00;112049.66;5112589;28;20290;-78
2021/12/23 04:42:42;;;;;;;34.22;24.15;;;0.50;61.80;;;-142.21;100.00;112049.66;5113311;28;20245;-78
2021/12/23 04:45:10;;;;;;;32.53;23.85;;;0.50;61.80;;;-142.21;100.00;112049.66;5112710;28;20231;-78
2021/12/23 04:47:39;;;;;;;35.58;24.17;;;0.50;61.60;;;-142.21;100.00;112049.66;5077761;28;20552;-78
2021/12/23 04:50:11;;;;;;;33.55;23.27;;;0.40;61.60;;;-142.21;100.00;112049.66;5113253;28;20559;-78
2021/12/23 04:52:39;;;;;;;35.25;24.33;;;0.40;61.70;;;-142.21;100.00;112049.66;5112370;28;20199;-78
2021/12/23 04:55:11;;;;;;;33.75;24.27;;;0.40;61.80;;;-142.21;100.00;112049.66;5095028;28;20207;-78
2021/12/23 04:57:39;;;;;;;35.78;22.98;;;0.40;62.00;;;-142.21;100.00;112049.66;5113678;28;20188;-78
2021/12/23 05:00:11;;;;;;;29.92;22.15;;;0.40;61.90;;;-142.21;100.00;112049.66;5113232;28;20627;-77
2021/12/23 05:02:39;;;;;;;33.20;22.90;;;0.40;61.40;;;-142.21;100.00;112049.66;5112487;28;20192;-77
2021/12/23 05:05:09;;;;;;;32.65;23.75;;;0.60;60.90;;;-142.21;100.00;112049.66;5113030;28;20207;-78
2021/12/23 05:07:36;;;;;;;34.58;23.42;;;0.40;62.10;;;-142.21;100.00;112049.66;5112297;28;20303;-78
2021/12/23 05:10:04;;;;;;;31.63;23.70;;;0.40;62.40;;;-142.21;100.00;112049.66;5113214;28;20319;-78
2021/12/23 05:12:35;;;;;;;33.60;23.50;;;0.40;62.80;;;-142.21;100.00;112049.66;5112634;28;20537;-78
2021/12/23 05:15:03;;;;;;;33.78;24.05;;;0.50;62.50;;;-142.21;100.00;112049.66;5113327;28;20215;-78
2021/12/23 05:17:30;;;;;;;34.33;24.60;;;0.50;62.50;;;-142.21;100.00;112049.66;5111556;28;20636;-78
2021/12/23 05:19:57;;;;;;;33.63;23.65;;;0.40;62.20;;;-142.21;100.00;112049.66;5112705;28;20291;-77
2021/12/23 05:22:24;;;;;;;30.27;22.02;;;0.40;62.50;;;-142.21;100.00;112049.66;5112865;28;20219;-77
2021/12/23 05:24:52;;;;;;;38.17;24.98;;;0.50;62.60;;;-142.21;100.00;112049.66;5113014;28;20204;-77
2021/12/23 05:27:19;;;;;;;34.88;23.40;;;0.50;62.50;;;-142.21;100.00;112049.66;5112995;28;20204;-78
2021/12/23 05:29:47;;;;;;;37.92;25.23;;;0.50;62.50;;;-142.21;100.00;112049.66;5112369;28;20227;-78
2021/12/23 05:32:15;;;;;;;32.55;23.75;;;0.50;63.30;;;-142.21;100.00;112049.66;5112421;28;20204;-78
2021/12/23 05:34:42;;;;;;;33.00;23.58;;;0.50;62.40;;;-142.21;100.00;112049.66;5112294;28;20231;-78
2021/12/23 05:37:09;;;;;;;31.48;23.30;;;0.50;62.20;;;-142.21;100.00;112049.66;5112885;28;20286;-78
2021/12/23 05:39:37;;;;;;;32.55;22.23;;;0.40;62.40;;;-142.21;100.00;112049.66;5112049;28;20196;-77
2021/12/23 05:42:04;;;;;;;29.88;22.42;;;0.50;62.50;;;-142.21;100.00;112049.66;5112996;28;20232;-77
2021/12/23 05:44:34;;;;;;;31.00;22.17;;;0.50;61.90;;;-142.21;100.00;112049.66;5112388;27;20198;-77
2021/12/23 05:47:03;;;;;;;31.05;22.75;;;0.50;61.70;;;-142.21;100.00;112049.66;5111834;28;20203;-76
2021/12/23 05:49:30;;;;;;;30.88;21.67;;;0.60;61.90;;;-142.21;100.00;112049.66;5112180;28;20565;-78
2021/12/23 05:51:57;;;;;;;27.67;21.05;;;0.50;61.60;;;-142.21;100.00;112049.66;5111909;28;20209;-78
2021/12/23 05:54:25;;;;;;;32.97;23.58;;;0.60;61.80;;;-142.21;100.00;112049.66;5111680;28;20306;-77
2021/12/23 05:56:52;;;;;;;32.85;22.08;;;0.70;62.90;;;-142.21;100.00;112049.66;5111762;28;20287;-77
2021/12/23 05:59:19;;;;;;;30.23;21.67;;;0.60;62.70;;;-142.21;100.00;112049.66;5112252;28;20214;-76
2021/12/23 06:01:46;;;;;;;30.30;21.92;;;0.70;63.20;;;-142.21;100.00;112049.66;5112736;28;20211;-79
2021/12/23 06:04:14;;;;;;;33.00;23.65;;;0.70;62.80;;;-142.21;100.00;112049.66;5114792;28;20207;-76
2021/12/23 06:06:42;;;;;;;29.50;22.42;;;0.70;62.60;;;-142.21;100.00;112049.66;5124713;28;20742;-76
2021/12/23 06:09:09;;;;;;;32.47;22.30;;;0.70;62.90;;;-142.21;100.00;112049.66;5119513;28;20288;-78
2021/12/23 06:11:36;;;;;;;32.85;23.90;;;0.80;63.30;;;-142.21;100.00;112049.66;5115552;28;20698;-78
2021/12/23 06:14:03;;;;;;;33.20;22.13;;;0.70;62.30;;;-142.21;100.00;112049.66;5115536;28;20632;-78
2021/12/23 06:16:30;;;;;;;30.58;22.73;;;0.50;62.30;;;-142.21;100.00;112049.66;5116505;28;20200;-77
2021/12/23 06:18:57;;;;;;;30.70;22.27;;;0.40;62.50;;;-142.21;100.00;112049.66;5116639;28;20203;-78
2021/12/23 06:21:28;;;;;;;32.20;22.25;;;0.40;64.00;;;-142.21;100.00;112049.66;5115313;28;20238;-79
2021/12/23 06:23:56;;;;;;;32.47;22.80;;;0.40;62.40;;;-142.21;100.00;112049.66;5116472;28;20183;-78
2021/12/23 06:26:23;;;;;;;31.65;22.60;;;0.50;63.60;;;-142.21;100.00;112049.66;5116242;28;20210;-77
2021/12/23 06:28:50;;;;;;;32.53;23.13;;;0.50;63.40;;;-142.21;100.00;112049.66;5116760;28;20621;-77
2021/12/23 06:31:18;;;;;;;33.83;22.20;;;0.40;63.40;;;-142.21;100.00;112049.66;5115726;28;20300;-77
2021/12/23 06:33:45;;;;;;;34.20;22.92;;;0.40;63.70;;;-142.21;100.00;112049.66;5115739;28;20210;-78
2021/12/23 06:36:13;;;;;;;27.58;20.73;;;0.50;63.80;;;-142.21;100.00;112049.66;5115811;28;20294;-78
2021/12/23 06:38:43;;;;;;;33.90;22.42;;;0.50;63.30;;;-142.21;100.00;112049.66;5131167;27;20269;-78
2021/12/23 06:41:12;;;;;;;33.38;23.27;;;0.60;62.90;;;-142.21;100.00;112049.66;5115751;28;20196;-77
2021/12/23 06:43:39;;;;;;;30.23;22.08;;;0.60;62.80;;;-142.21;100.00;112049.66;5115149;28;20223;-77
2021/12/23 06:46:07;;;;;;;33.70;22.38;;;0.60;62.90;;;-142.21;100.00;112049.66;5116394;28;20553;-77
2021/12/23 06:48:34;;;;;;;33.13;23.65;;;0.50;62.90;;;-142.21;100.00;112049.66;5115510;28;20229;-78
2021/12/23 06:51:03;;;;;;;31.38;22.25;;;0.60;63.00;;;-142.21;100.00;112049.66;5115692;28;20233;-77
2021/12/23 06:53:32;;;;;;;32.85;22.20;;;0.50;63.40;;;-142.21;100.00;112049.66;5115552;28;20303;-77
2021/12/23 06:56:01;;;;;;;30.65;22.35;;;0.60;63.60;;;-142.21;100.00;112049.66;5115566;28;20200;-79
2021/12/23 06:58:31;;;;;;;31.38;22.77;;;0.70;63.60;;;-142.21;100.00;112049.66;5115597;28;20229;-77
2021/12/23 07:00:58;;;;;;;31.85;22.17;;;0.60;64.00;;;-142.21;100.00;112049.66;5115045;28;20203;-79
2021/12/23 07:03:36;;;;;;;34.20;23.35;;;0.60;63.30;;;-142.21;100.00;112049.66;5115589;28;20238;-79
2021/12/23 07:06:06;;;;;;;32.42;22.33;;;0.70;63.40;;;-142.21;100.00;112049.66;5114958;28;20535;-77
2021/12/23 07:08:37;;;;;;;31.27;22.05;;;0.70;63.20;;;-142.21;100.00;112049.66;5115432;28;20188;-79
2021/12/23 07:11:06;;;;;;;29.73;21.65;;;0.70;63.20;;;-142.21;100.00;112049.66;5114972;28;20239;-78
2021/12/23 07:13:34;;;;;;;33.65;23.17;;;0.60;63.20;;;-142.21;100.00;112049.66;5114573;28;20207;-78
2021/12/23 07:16:01;;;;;;;35.17;23.90;;;0.70;63.30;;;-142.21;100.00;112049.66;5113541;28;20680;-78
2021/12/23 07:18:29;;;;;;;30.70;22.23;;;0.60;63.20;;;-142.21;100.00;112049.66;5114215;28;20208;-78
2021/12/23 07:20:56;;;;;;;31.17;21.60;;;0.70;63.30;;;-142.21;100.00;112049.66;5114973;28;20218;-78
2021/12/23 07:23:23;;;;;;;35.33;23.20;;;0.60;63.10;;;-142.21;100.00;112049.66;5115515;28;20295;-78
2021/12/23 07:25:51;;;;;;;35.83;23.30;;;0.70;63.10;;;-142.21;100.00;112049.66;5114501;27;20210;-78
2021/12/23 07:28:19;;;;;;;32.55;22.60;;;0.70;63.20;;;-142.21;100.00;112049.66;5133815;27;20293;-78
2021/12/23 07:30:47;;;;;;;33.70;23.27;;;0.70;63.10;;;-142.21;100.00;112049.66;5127728;27;20224;-78
2021/12/23 07:33:14;;;;;;;33.20;22.50;;;0.70;62.90;;;-142.21;100.00;112049.66;5114633;28;20567;-78
2021/12/23 07:35:42;;;;;;;33.53;25.50;;;0.80;62.70;;;-142.21;100.00;112049.66;5114623;28;20262;-77
2021/12/23 07:38:09;;;;;;;33.95;23.95;;;0.80;62.80;;;-142.21;100.00;112049.66;5113882;28;20246;-79
2021/12/23 07:40:36;;;;;;;32.40;23.27;;;0.80;63.10;;;-142.21;100.00;112049.66;5113855;28;20298;-78
2021/12/23 07:43:21;;;;;;;31.25;22.83;;;0.80;62.70;;;-142.21;100.00;112049.66;5123683;27;20226;-79
2021/12/23 07:45:49;;;;;;;34.83;25.55;;;0.80;62.70;;;-142.21;100.00;112049.66;5120289;27;20286;-78
2021/12/23 07:48:16;;;;;;;32.05;21.80;;;0.90;63.80;;;-142.21;100.00;112049.66;5114123;28;20283;-80
2021/12/23 07:50:45;;;;;;;32.15;21.45;;;1.00;63.00;;;-142.21;100.00;112049.66;5113587;28;20302;-79
2021/12/23 07:53:12;;;;;;;30.10;21.63;;;1.00;62.80;;;-142.21;100.00;112049.66;5114802;28;20208;-79
2021/12/23 07:55:42;;;;;;;33.05;21.70;;;1.00;63.10;;;-142.21;100.00;112049.66;5113843;28;20752;-80
2021/12/23 07:58:09;;;;;;;31.60;21.58;;;1.10;63.10;;;-142.21;100.00;112049.66;5114983;28;20210;-78
2021/12/23 08:00:37;;;;;;;32.65;22.60;;;1.10;63.10;;;-142.21;100.00;112049.66;5130088;27;20204;-79
2021/12/23 08:03:06;;;;;;;34.50;23.83;;;1.20;63.20;;;-142.21;100.00;112049.66;5114169;28;20627;-79
2021/12/23 08:05:34;;;;;;;34.33;24.13;;;1.30;62.80;;;-142.21;100.00;112049.66;5113925;28;20261;-77
2021/12/23 08:08:02;;;;;;;28.27;20.70;;;1.30;62.60;;;-142.21;100.00;112049.66;5114695;28;20571;-77
2021/12/23 08:10:30;;;;;;;28.48;20.85;;;1.30;62.50;;;-142.21;100.00;112049.66;5114074;28;20231;-78
2021/12/23 08:12:57;;;;;;;29.40;20.63;;;1.40;62.60;;;-142.21;100.00;112049.66;5113914;28;20311;-77
2021/12/23 08:15:25;;;;;;;29.35;20.23;;;1.40;62.30;;;-142.21;100.00;112049.66;5114363;28;20226;-77
2021/12/23 08:17:52;;;;;;;31.40;21.30;;;1.40;62.60;;;-142.21;100.00;112049.66;5112074;28;20287;-77
2021/12/23 08:20:21;;;;;;;28.98;20.73;;;1.40;62.40;;;-142.21;100.00;112049.66;5114136;28;20249;-76
2021/12/23 08:22:48;;;;;;;29.55;19.88;;;1.50;62.30;;;-142.21;100.00;112049.66;5113362;28;20229;-80
2021/12/23 08:25:16;;;;;;;27.05;20.30;;;1.40;62.20;;;-142.21;100.00;112049.66;5113923;28;20292;-75
2021/12/23 08:27:45;;;;;;;27.85;20.40;;;1.30;63.30;;;-142.21;100.00;112049.66;5113801;28;20292;-75
2021/12/23 08:30:14;;;;;;;29.27;21.08;;;1.20;63.30;;;-142.21;100.00;112049.66;5113334;28;20242;-76
2021/12/23 08:32:42;;;;;;;26.27;20.05;;;1.20;63.80;;;-142.21;100.00;112049.66;5094712;28;20204;-77
2021/12/23 08:35:11;;;;;;;27.27;19.33;;;1.30;63.90;;;-142.21;100.00;112049.66;5113237;28;20227;-75
2021/12/23 08:37:44;;;;;;;28.83;20.30;;;1.40;63.50;;;-142.21;100.00;112049.66;5113409;28;20196;-77
2021/12/23 08:40:12;;;;;;;31.08;20.95;;;1.60;63.50;;;-142.21;100.00;112049.66;5113263;28;20188;-75
2021/12/23 08:42:40;;;;;;;28.52;20.58;;;1.60;63.20;;;-142.21;100.00;112049.66;5113831;28;20621;-75
2021/12/23 08:45:08;;;;;;;26.83;19.80;;;1.70;62.90;;;-142.21;100.00;112049.66;5113474;28;20216;-75
2021/12/23 08:47:36;;;;;;;26.95;19.95;;;1.70;63.50;;;-142.21;100.00;112049.66;5113845;28;20210;-78
2021/12/23 08:50:06;;;;;;;25.10;18.83;;;1.80;63.60;;;-142.21;100.00;112049.66;5113751;28;20239;-75
2021/12/23 08:52:34;;;;;;;26.52;18.30;;;1.80;63.60;;;-142.21;100.00;112049.66;5113012;28;20227;-78
2021/12/23 08:55:07;;;;;;;25.92;19.65;;;1.80;63.60;;;-142.21;100.00;112049.66;5113310;28;20200;-76
2021/12/23 08:57:34;;;;;;;23.50;17.35;;;1.90;64.10;;;-142.21;100.00;112049.66;5113144;28;20198;-76
2021/12/23 09:00:04;;;;;;;26.38;18.67;;;1.90;63.90;;;-142.21;100.00;112049.66;5113376;28;20203;-76
2021/12/23 09:02:31;;;;;;;25.42;19.02;;;2.00;64.10;;;-142.21;100.00;112049.66;5112521;28;20291;-75
2021/12/23 09:04:58;;;;;;;27.17;19.75;;;2.00;64.20;;;-142.21;100.00;112049.66;5113561;28;20204;-78
2021/12/23 09:07:25;;;;;;;27.73;19.30;;;2.10;64.80;;;-142.21;100.00;112049.66;5112266;28;20606;-78
2021/12/23 09:09:52;;;;;;;27.20;19.40;;;2.10;64.80;;;-142.21;100.00;112049.66;5128859;27;20207;-77
2021/12/23 09:12:22;;;;;;;23.90;18.50;;;2.20;65.20;;;-142.21;100.00;112049.66;5113014;28;20258;-74
2021/12/23 09:14:50;;;;;;;26.35;19.45;;;2.20;65.40;;;-142.21;100.00;112049.66;5112855;28;20238;-76
2021/12/23 09:17:18;;;;;;;25.48;19.10;;;2.30;65.00;;;-142.21;100.00;112049.66;5112985;28;20257;-75
2021/12/23 09:19:45;;;;;;;25.05;18.05;;;2.30;64.90;;;-142.21;100.00;112049.66;5112437;28;20292;-78
2021/12/23 09:22:13;;;;;;;24.40;17.50;;;2.40;65.20;;;-142.21;100.00;112049.66;5093483;28;20230;-77
2021/12/23 09:24:45;;;;;;;22.98;17.52;;;2.40;65.40;;;-142.21;100.00;112049.66;5112305;28;20719;-77
2021/12/23 09:27:23;;;;;;;28.85;19.85;;;2.50;65.50;;;-142.21;100.00;112049.66;5111635;28;20636;-75
2021/12/23 09:32:52;;;;;;;24.83;17.50;;;2.70;65.30;;;-142.21;100.00;112049.66;5131278;28;20272;-75
2021/12/23 09:35:24;;;;;;;26.90;19.40;;;2.70;65.40;;;-142.21;100.00;112049.66;5107068;28;20227;-79
2021/12/23 09:37:52;;;;;;;27.38;18.85;;;2.80;65.80;;;-142.21;100.00;112049.66;5111312;28;20636;-77
2021/12/23 09:40:23;;;;;;;28.13;20.38;;;2.90;65.70;;;-142.21;100.00;112049.66;5112880;28;20291;-77
2021/12/23 09:42:51;;;;;;;28.77;20.80;;;2.90;65.70;;;-142.21;100.00;112049.66;5111828;28;20180;-78
2021/12/23 09:45:20;;;;;;;28.08;20.73;;;2.90;65.70;;;-142.21;100.00;112049.66;5112605;28;20230;-77
2021/12/23 09:47:50;;;;;;;28.65;21.33;;;2.90;65.90;;;-142.21;100.00;112049.66;5112002;28;20250;-78
2021/12/23 09:50:23;;;;;;;29.85;21.33;;;2.80;66.20;;;-142.21;100.00;112049.66;5111202;28;20601;-78
2021/12/23 09:52:53;;;;;;;31.88;22.83;;;2.80;66.30;;;-142.21;100.00;112049.66;5111635;28;20211;-80
2021/12/23 09:55:26;;;;;;;32.67;22.98;;;2.80;66.70;;;-142.21;100.00;112049.66;5112605;28;20287;-77
2021/12/23 09:57:58;;;;;;;31.52;22.85;;;2.90;66.90;;;-142.21;100.00;112049.66;5112045;28;20184;-79